sensor_id;sensor_type;location;lat;lon;timestamp;temperature;humidity
18450;DHT22;9354;50.194;7.690;2023-08-30T00:01:34;16.00;99.90
18450;DHT22;9354;50.194;7.690;2023-08-30T00:04:02;16.00;99.90
18450;DHT22;9354;50.194;7.690;2023-08-30T00:06:29;16.00;99.90
18450;DHT22;9354;50.194;7.690;2023-08-30T00:08:58;16.00;99.90
18450;DHT22;9354;50.194;7.690;2023-08-30T00:11:25;16.00;99.90
18450;DHT22;9354;50.194;7.690;2023-08-30T00:13:52;15.90;99.90
18450;DHT22;9354;50.194;7.690;2023-08-30T00:16:21;15.90;99.90
18450;DHT22;9354;50.194;7.690;2023-08-30T00:18:48;15.80;99.90
18450;DHT22;9354;50.194;7.690;2023-08-30T00:21:16;15.70;99.90
18450;DHT22;9354;50.194;7.690;2023-08-30T00:23:43;15.70;99.90
18450;DHT22;9354;50.194;7.690;2023-08-30T00:26:11;15.70;99.90
18450;DHT22;9354;50.194;7.690;2023-08-30T00:28:38;15.70;99.90
18450;DHT22;9354;50.194;7.690;2023-08-30T00:31:05;15.70;99.90
18450;DHT22;9354;50.194;7.690;2023-08-30T00:33:34;15.60;99.90
18450;DHT22;9354;50.194;7.690;2023-08-30T00:36:01;15.60;99.90
18450;DHT22;9354;50.194;7.690;2023-08-30T00:38:30;15.60;99.90
18450;DHT22;9354;50.194;7.690;2023-08-30T00:40:57;15.50;99.90
18450;DHT22;9354;50.194;7.690;2023-08-30T00:43:25;15.50;99.90
18450;DHT22;9354;50.194;7.690;2023-08-30T00:45:52;15.50;99.90
18450;DHT22;9354;50.194;7.690;2023-08-30T00:48:20;15.50;99.90
18450;DHT22;9354;50.194;7.690;2023-08-30T00:50:49;15.50;99.90
18450;DHT22;9354;50.194;7.690;2023-08-30T00:53:17;15.50;99.90
18450;DHT22;9354;50.194;7.690;2023-08-30T00:55:44;15.50;99.90
18450;DHT22;9354;50.194;7.690;2023-08-30T00:58:12;15.50;99.90
18450;DHT22;9354;50.194;7.690;2023-08-30T01:00:39;15.50;99.90
18450;DHT22;9354;50.194;7.690;2023-08-30T01:03:07;15.40;99.90
18450;DHT22;9354;50.194;7.690;2023-08-30T01:05:34;15.50;99.90
18450;DHT22;9354;50.194;7.690;2023-08-30T01:08:03;15.50;99.90
18450;DHT22;9354;50.194;7.690;2023-08-30T01:10:52;15.50;99.90
18450;DHT22;9354;50.194;7.690;2023-08-30T01:13:21;15.50;99.90
18450;DHT22;9354;50.194;7.690;2023-08-30T01:15:49;15.60;99.90
18450;DHT22;9354;50.194;7.690;2023-08-30T01:18:18;15.60;99.90
18450;DHT22;9354;50.194;7.690;2023-08-30T01:20:48;15.60;99.90
18450;DHT22;9354;50.194;7.690;2023-08-30T01:23:26;15.60;99.90
18450;DHT22;9354;50.194;7.690;2023-08-30T01:25:57;15.70;99.90
18450;DHT22;9354;50.194;7.690;2023-08-30T01:28:31;15.70;99.90
18450;DHT22;9354;50.194;7.690;2023-08-30T01:31:00;15.70;99.90
18450;DHT22;9354;50.194;7.690;2023-08-30T01:33:28;15.70;99.90
18450;DHT22;9354;50.194;7.690;2023-08-30T01:35:57;15.60;99.90
18450;DHT22;9354;50.194;7.690;2023-08-30T01:38:27;15.60;99.90
18450;DHT22;9354;50.194;7.690;2023-08-30T01:40:57;15.50;99.90
18450;DHT22;9354;50.194;7.690;2023-08-30T01:43:25;15.50;99.90
18450;DHT22;9354;50.194;7.690;2023-08-30T01:45:56;15.40;99.90
18450;DHT22;9354;50.194;7.690;2023-08-30T01:48:25;15.40;99.90
18450;DHT22;9354;50.194;7.690;2023-08-30T01:50:53;15.30;99.90
18450;DHT22;9354;50.194;7.690;2023-08-30T01:53:25;15.30;99.90
18450;DHT22;9354;50.194;7.690;2023-08-30T01:55:53;15.30;99.90
18450;DHT22;9354;50.194;7.690;2023-08-30T01:58:20;15.30;99.90
18450;DHT22;9354;50.194;7.690;2023-08-30T02:00:48;15.30;99.90
18450;DHT22;9354;50.194;7.690;2023-08-30T02:03:16;15.30;99.90
18450;DHT22;9354;50.194;7.690;2023-08-30T02:05:52;15.30;99.90
18450;DHT22;9354;50.194;7.690;2023-08-30T02:08:22;15.20;99.90
18450;DHT22;9354;50.194;7.690;2023-08-30T02:10:56;15.20;99.90
18450;DHT22;9354;50.194;7.690;2023-08-30T02:13:26;15.10;99.90
18450;DHT22;9354;50.194;7.690;2023-08-30T02:15:55;15.00;99.90
18450;DHT22;9354;50.194;7.690;2023-08-30T02:18:25;15.00;99.90
18450;DHT22;9354;50.194;7.690;2023-08-30T02:20:53;15.00;99.90
18450;DHT22;9354;50.194;7.690;2023-08-30T02:23:23;15.00;99.90
18450;DHT22;9354;50.194;7.690;2023-08-30T02:25:51;15.00;99.90
18450;DHT22;9354;50.194;7.690;2023-08-30T02:28:18;15.10;99.90
18450;DHT22;9354;50.194;7.690;2023-08-30T02:30:46;15.10;99.90
18450;DHT22;9354;50.194;7.690;2023-08-30T02:33:13;15.00;99.90
18450;DHT22;9354;50.194;7.690;2023-08-30T02:35:42;15.00;99.90
18450;DHT22;9354;50.194;7.690;2023-08-30T02:38:09;15.00;99.90
18450;DHT22;9354;50.194;7.690;2023-08-30T02:40:37;15.00;99.90
18450;DHT22;9354;50.194;7.690;2023-08-30T02:43:04;15.00;99.90
18450;DHT22;9354;50.194;7.690;2023-08-30T02:45:31;15.00;99.90
18450;DHT22;9354;50.194;7.690;2023-08-30T02:47:59;15.00;99.90
18450;DHT22;9354;50.194;7.690;2023-08-30T02:50:26;15.00;99.90
18450;DHT22;9354;50.194;7.690;2023-08-30T02:52:55;14.90;99.90
18450;DHT22;9354;50.194;7.690;2023-08-30T02:55:22;14.90;99.90
18450;DHT22;9354;50.194;7.690;2023-08-30T02:57:49;14.90;99.90
18450;DHT22;9354;50.194;7.690;2023-08-30T03:00:17;14.80;99.90
18450;DHT22;9354;50.194;7.690;2023-08-30T03:02:44;14.80;99.90
18450;DHT22;9354;50.194;7.690;2023-08-30T03:05:12;14.80;99.90
18450;DHT22;9354;50.194;7.690;2023-08-30T03:07:39;14.70;99.90
18450;DHT22;9354;50.194;7.690;2023-08-30T03:10:09;14.70;99.90
18450;DHT22;9354;50.194;7.690;2023-08-30T03:12:37;14.60;99.90
18450;DHT22;9354;50.194;7.690;2023-08-30T03:15:05;14.60;99.90
18450;DHT22;9354;50.194;7.690;2023-08-30T03:17:33;14.50;99.90
18450;DHT22;9354;50.194;7.690;2023-08-30T03:20:01;14.50;99.90
18450;DHT22;9354;50.194;7.690;2023-08-30T03:22:31;14.40;99.90
18450;DHT22;9354;50.194;7.690;2023-08-30T03:24:58;14.40;99.90
18450;DHT22;9354;50.194;7.690;2023-08-30T03:27:30;14.40;99.90
18450;DHT22;9354;50.194;7.690;2023-08-30T03:29:57;14.40;99.90
18450;DHT22;9354;50.194;7.690;2023-08-30T03:32:24;14.40;99.90
18450;DHT22;9354;50.194;7.690;2023-08-30T03:34:52;14.30;99.90
18450;DHT22;9354;50.194;7.690;2023-08-30T03:37:19;14.30;99.90
18450;DHT22;9354;50.194;7.690;2023-08-30T03:39:46;14.30;99.90
18450;DHT22;9354;50.194;7.690;2023-08-30T03:42:14;14.20;99.90
18450;DHT22;9354;50.194;7.690;2023-08-30T03:44:43;14.20;99.90
18450;DHT22;9354;50.194;7.690;2023-08-30T03:47:10;14.20;99.90
18450;DHT22;9354;50.194;7.690;2023-08-30T03:49:37;14.20;99.90
18450;DHT22;9354;50.194;7.690;2023-08-30T03:52:05;14.10;99.90
18450;DHT22;9354;50.194;7.690;2023-08-30T03:54:33;14.10;99.90
18450;DHT22;9354;50.194;7.690;2023-08-30T03:57:00;14.00;99.90
18450;DHT22;9354;50.194;7.690;2023-08-30T03:59:28;14.00;99.90
18450;DHT22;9354;50.194;7.690;2023-08-30T04:01:56;14.00;99.90
18450;DHT22;9354;50.194;7.690;2023-08-30T04:04:24;14.00;99.90
18450;DHT22;9354;50.194;7.690;2023-08-30T04:06:51;14.00;99.90
18450;DHT22;9354;50.194;7.690;2023-08-30T04:09:18;13.90;99.90
18450;DHT22;9354;50.194;7.690;2023-08-30T04:11:47;13.90;99.90
18450;DHT22;9354;50.194;7.690;2023-08-30T04:14:14;13.90;99.90
18450;DHT22;9354;50.194;7.690;2023-08-30T04:16:41;13.90;99.90
18450;DHT22;9354;50.194;7.690;2023-08-30T04:19:10;13.80;99.90
18450;DHT22;9354;50.194;7.690;2023-08-30T04:21:37;13.80;99.90
18450;DHT22;9354;50.194;7.690;2023-08-30T04:24:05;13.80;99.90
18450;DHT22;9354;50.194;7.690;2023-08-30T04:26:33;13.70;99.90
18450;DHT22;9354;50.194;7.690;2023-08-30T04:29:00;13.70;99.90
18450;DHT22;9354;50.194;7.690;2023-08-30T04:31:29;13.70;99.90
18450;DHT22;9354;50.194;7.690;2023-08-30T04:33:56;13.70;99.90
18450;DHT22;9354;50.194;7.690;2023-08-30T04:36:25;13.70;99.90
18450;DHT22;9354;50.194;7.690;2023-08-30T04:38:52;13.70;99.90
18450;DHT22;9354;50.194;7.690;2023-08-30T04:41:20;13.70;99.90
18450;DHT22;9354;50.194;7.690;2023-08-30T04:43:47;13.70;99.90
18450;DHT22;9354;50.194;7.690;2023-08-30T04:46:14;13.70;99.90
18450;DHT22;9354;50.194;7.690;2023-08-30T04:48:42;13.70;99.90
18450;DHT22;9354;50.194;7.690;2023-08-30T04:51:09;13.60;99.90
18450;DHT22;9354;50.194;7.690;2023-08-30T04:53:38;13.60;99.90
18450;DHT22;9354;50.194;7.690;2023-08-30T04:56:11;13.50;99.90
18450;DHT22;9354;50.194;7.690;2023-08-30T04:58:39;13.50;99.90
18450;DHT22;9354;50.194;7.690;2023-08-30T05:01:06;13.40;99.90
18450;DHT22;9354;50.194;7.690;2023-08-30T05:03:34;13.40;99.90
18450;DHT22;9354;50.194;7.690;2023-08-30T05:06:02;13.40;99.90
18450;DHT22;9354;50.194;7.690;2023-08-30T05:08:29;13.50;99.90
18450;DHT22;9354;50.194;7.690;2023-08-30T05:10:58;13.50;99.90
18450;DHT22;9354;50.194;7.690;2023-08-30T05:13:25;13.40;99.90
18450;DHT22;9354;50.194;7.690;2023-08-30T05:15:53;13.40;99.90
18450;DHT22;9354;50.194;7.690;2023-08-30T05:18:20;13.50;99.90
18450;DHT22;9354;50.194;7.690;2023-08-30T05:20:48;13.50;99.90
18450;DHT22;9354;50.194;7.690;2023-08-30T05:23:15;13.60;99.90
18450;DHT22;9354;50.194;7.690;2023-08-30T05:25:42;13.60;99.90
18450;DHT22;9354;50.194;7.690;2023-08-30T05:28:11;13.60;99.90
18450;DHT22;9354;50.194;7.690;2023-08-30T05:30:43;13.60;99.90
18450;DHT22;9354;50.194;7.690;2023-08-30T05:33:10;13.60;99.90
18450;DHT22;9354;50.194;7.690;2023-08-30T05:35:37;13.60;99.90
18450;DHT22;9354;50.194;7.690;2023-08-30T05:38:05;13.60;99.90
18450;DHT22;9354;50.194;7.690;2023-08-30T05:40:32;13.60;99.90
18450;DHT22;9354;50.194;7.690;2023-08-30T05:43:00;13.70;99.90
18450;DHT22;9354;50.194;7.690;2023-08-30T05:45:29;13.70;99.90
18450;DHT22;9354;50.194;7.690;2023-08-30T05:47:56;13.80;99.90
18450;DHT22;9354;50.194;7.690;2023-08-30T05:50:23;13.80;99.90
18450;DHT22;9354;50.194;7.690;2023-08-30T05:52:51;13.90;99.90
18450;DHT22;9354;50.194;7.690;2023-08-30T05:55:19;13.90;99.90
18450;DHT22;9354;50.194;7.690;2023-08-30T05:57:47;14.00;99.90
18450;DHT22;9354;50.194;7.690;2023-08-30T06:00:15;14.00;99.90
18450;DHT22;9354;50.194;7.690;2023-08-30T06:02:44;14.00;99.90
18450;DHT22;9354;50.194;7.690;2023-08-30T06:05:13;14.00;99.90
18450;DHT22;9354;50.194;7.690;2023-08-30T06:07:40;14.00;99.90
18450;DHT22;9354;50.194;7.690;2023-08-30T06:10:08;14.00;99.90
18450;DHT22;9354;50.194;7.690;2023-08-30T06:12:36;14.00;99.90
18450;DHT22;9354;50.194;7.690;2023-08-30T06:15:04;14.00;99.90
18450;DHT22;9354;50.194;7.690;2023-08-30T06:17:31;14.00;99.90
18450;DHT22;9354;50.194;7.690;2023-08-30T06:20:00;14.00;99.90
18450;DHT22;9354;50.194;7.690;2023-08-30T06:22:28;14.00;99.90
18450;DHT22;9354;50.194;7.690;2023-08-30T06:24:56;14.10;99.90
18450;DHT22;9354;50.194;7.690;2023-08-30T06:27:23;14.20;99.90
18450;DHT22;9354;50.194;7.690;2023-08-30T06:29:51;14.30;99.90
18450;DHT22;9354;50.194;7.690;2023-08-30T06:32:18;14.40;99.90
18450;DHT22;9354;50.194;7.690;2023-08-30T06:34:45;14.50;99.90
18450;DHT22;9354;50.194;7.690;2023-08-30T06:37:14;14.60;99.90
18450;DHT22;9354;50.194;7.690;2023-08-30T06:39:43;14.70;99.90
18450;DHT22;9354;50.194;7.690;2023-08-30T06:42:10;14.70;99.90
18450;DHT22;9354;50.194;7.690;2023-08-30T06:44:37;14.80;99.90
18450;DHT22;9354;50.194;7.690;2023-08-30T06:47:06;14.80;99.90
18450;DHT22;9354;50.194;7.690;2023-08-30T06:49:33;14.80;99.90
18450;DHT22;9354;50.194;7.690;2023-08-30T06:52:01;14.80;99.90
18450;DHT22;9354;50.194;7.690;2023-08-30T06:54:33;14.80;99.90
18450;DHT22;9354;50.194;7.690;2023-08-30T06:57:01;14.80;99.90
18450;DHT22;9354;50.194;7.690;2023-08-30T06:59:29;14.80;99.90
18450;DHT22;9354;50.194;7.690;2023-08-30T07:01:56;14.80;99.90
18450;DHT22;9354;50.194;7.690;2023-08-30T07:04:23;14.80;99.90
18450;DHT22;9354;50.194;7.690;2023-08-30T07:06:51;14.80;99.90
18450;DHT22;9354;50.194;7.690;2023-08-30T07:09:18;14.80;99.90
18450;DHT22;9354;50.194;7.690;2023-08-30T07:11:47;14.90;99.90
18450;DHT22;9354;50.194;7.690;2023-08-30T07:14:15;15.00;99.90
18450;DHT22;9354;50.194;7.690;2023-08-30T07:16:42;15.00;99.90
18450;DHT22;9354;50.194;7.690;2023-08-30T07:19:10;15.00;99.90
18450;DHT22;9354;50.194;7.690;2023-08-30T07:21:38;15.00;99.90
18450;DHT22;9354;50.194;7.690;2023-08-30T07:24:06;15.10;99.90
18450;DHT22;9354;50.194;7.690;2023-08-30T07:26:34;15.10;99.90
18450;DHT22;9354;50.194;7.690;2023-08-30T07:29:03;15.20;99.90
18450;DHT22;9354;50.194;7.690;2023-08-30T07:31:32;15.30;99.90
18450;DHT22;9354;50.194;7.690;2023-08-30T07:33:59;15.40;99.90
18450;DHT22;9354;50.194;7.690;2023-08-30T07:36:27;15.50;99.90
18450;DHT22;9354;50.194;7.690;2023-08-30T07:38:55;15.60;99.90
18450;DHT22;9354;50.194;7.690;2023-08-30T07:41:22;15.70;99.90
18450;DHT22;9354;50.194;7.690;2023-08-30T07:43:49;15.80;99.90
18450;DHT22;9354;50.194;7.690;2023-08-30T07:46:18;15.80;99.90
18450;DHT22;9354;50.194;7.690;2023-08-30T07:48:45;15.80;99.90
18450;DHT22;9354;50.194;7.690;2023-08-30T07:51:13;15.80;99.90
18450;DHT22;9354;50.194;7.690;2023-08-30T07:53:40;15.90;99.90
18450;DHT22;9354;50.194;7.690;2023-08-30T07:56:07;16.00;99.90
18450;DHT22;9354;50.194;7.690;2023-08-30T07:58:35;16.00;99.90
18450;DHT22;9354;50.194;7.690;2023-08-30T08:01:02;16.10;99.90
18450;DHT22;9354;50.194;7.690;2023-08-30T08:03:31;16.30;99.90
18450;DHT22;9354;50.194;7.690;2023-08-30T08:05:59;16.30;99.90
18450;DHT22;9354;50.194;7.690;2023-08-30T08:08:27;16.40;99.90
18450;DHT22;9354;50.194;7.690;2023-08-30T08:10:54;16.50;99.90
18450;DHT22;9354;50.194;7.690;2023-08-30T08:13:21;16.70;99.90
18450;DHT22;9354;50.194;7.690;2023-08-30T08:15:49;16.90;99.90
18450;DHT22;9354;50.194;7.690;2023-08-30T08:18:16;17.00;99.90
18450;DHT22;9354;50.194;7.690;2023-08-30T08:20:45;17.10;99.90
18450;DHT22;9354;50.194;7.690;2023-08-30T08:23:12;17.30;99.90
18450;DHT22;9354;50.194;7.690;2023-08-30T08:25:40;17.40;99.90
18450;DHT22;9354;50.194;7.690;2023-08-30T08:28:07;17.60;99.90
18450;DHT22;9354;50.194;7.690;2023-08-30T08:30:36;17.60;99.90
18450;DHT22;9354;50.194;7.690;2023-08-30T08:33:03;17.70;99.90
18450;DHT22;9354;50.194;7.690;2023-08-30T08:35:31;17.70;99.90
18450;DHT22;9354;50.194;7.690;2023-08-30T08:38:00;17.80;99.90
18450;DHT22;9354;50.194;7.690;2023-08-30T08:40:27;17.90;99.90
18450;DHT22;9354;50.194;7.690;2023-08-30T08:42:55;18.10;99.90
18450;DHT22;9354;50.194;7.690;2023-08-30T08:45:23;18.10;99.90
18450;DHT22;9354;50.194;7.690;2023-08-30T08:47:51;18.30;99.90
18450;DHT22;9354;50.194;7.690;2023-08-30T08:50:18;18.50;99.90
18450;DHT22;9354;50.194;7.690;2023-08-30T08:52:46;18.80;99.90
18450;DHT22;9354;50.194;7.690;2023-08-30T08:55:16;19.10;99.90
18450;DHT22;9354;50.194;7.690;2023-08-30T08:57:44;19.40;99.90
18450;DHT22;9354;50.194;7.690;2023-08-30T09:00:13;19.60;99.90
18450;DHT22;9354;50.194;7.690;2023-08-30T09:02:42;19.60;99.90
18450;DHT22;9354;50.194;7.690;2023-08-30T09:05:10;19.60;99.90
18450;DHT22;9354;50.194;7.690;2023-08-30T09:07:38;19.70;99.90
18450;DHT22;9354;50.194;7.690;2023-08-30T09:10:07;19.80;99.90
18450;DHT22;9354;50.194;7.690;2023-08-30T09:12:36;19.80;99.90
18450;DHT22;9354;50.194;7.690;2023-08-30T09:15:04;19.80;99.90
18450;DHT22;9354;50.194;7.690;2023-08-30T09:17:38;20.00;99.90
18450;DHT22;9354;50.194;7.690;2023-08-30T09:20:07;20.20;99.90
18450;DHT22;9354;50.194;7.690;2023-08-30T09:22:39;20.40;99.90
18450;DHT22;9354;50.194;7.690;2023-08-30T09:25:08;20.50;99.90
18450;DHT22;9354;50.194;7.690;2023-08-30T09:27:37;20.60;99.90
18450;DHT22;9354;50.194;7.690;2023-08-30T09:30:08;20.50;99.90
18450;DHT22;9354;50.194;7.690;2023-08-30T09:32:40;20.40;99.90
18450;DHT22;9354;50.194;7.690;2023-08-30T09:35:09;20.50;99.90
18450;DHT22;9354;50.194;7.690;2023-08-30T09:37:36;20.60;99.90
18450;DHT22;9354;50.194;7.690;2023-08-30T09:40:04;20.80;99.90
18450;DHT22;9354;50.194;7.690;2023-08-30T09:42:32;20.90;99.90
18450;DHT22;9354;50.194;7.690;2023-08-30T09:45:01;20.70;99.90
18450;DHT22;9354;50.194;7.690;2023-08-30T09:47:29;20.40;99.90
18450;DHT22;9354;50.194;7.690;2023-08-30T09:49:58;20.00;99.90
18450;DHT22;9354;50.194;7.690;2023-08-30T09:52:30;19.50;99.90
18450;DHT22;9354;50.194;7.690;2023-08-30T09:54:58;19.10;99.90
18450;DHT22;9354;50.194;7.690;2023-08-30T09:57:27;18.90;99.90
18450;DHT22;9354;50.194;7.690;2023-08-30T09:59:55;18.60;99.90
18450;DHT22;9354;50.194;7.690;2023-08-30T10:02:25;18.50;99.90
18450;DHT22;9354;50.194;7.690;2023-08-30T10:04:53;18.40;99.90
18450;DHT22;9354;50.194;7.690;2023-08-30T10:07:21;18.30;99.90
18450;DHT22;9354;50.194;7.690;2023-08-30T10:09:51;18.30;99.90
18450;DHT22;9354;50.194;7.690;2023-08-30T10:12:20;18.30;99.90
18450;DHT22;9354;50.194;7.690;2023-08-30T10:14:48;18.20;99.90
18450;DHT22;9354;50.194;7.690;2023-08-30T10:17:18;18.10;99.90
18450;DHT22;9354;50.194;7.690;2023-08-30T10:19:50;18.10;99.90
18450;DHT22;9354;50.194;7.690;2023-08-30T10:22:19;18.10;99.90
18450;DHT22;9354;50.194;7.690;2023-08-30T10:24:51;18.10;99.90
18450;DHT22;9354;50.194;7.690;2023-08-30T10:27:20;18.10;99.90
18450;DHT22;9354;50.194;7.690;2023-08-30T10:29:50;18.20;99.90
18450;DHT22;9354;50.194;7.690;2023-08-30T10:32:19;18.40;99.90
18450;DHT22;9354;50.194;7.690;2023-08-30T10:34:50;18.70;99.90
18450;DHT22;9354;50.194;7.690;2023-08-30T10:37:23;19.00;99.90
18450;DHT22;9354;50.194;7.690;2023-08-30T10:39:50;19.30;99.90
18450;DHT22;9354;50.194;7.690;2023-08-30T10:42:22;19.50;99.90
18450;DHT22;9354;50.194;7.690;2023-08-30T10:44:51;19.80;99.90
18450;DHT22;9354;50.194;7.690;2023-08-30T10:47:19;20.00;99.90
18450;DHT22;9354;50.194;7.690;2023-08-30T10:49:48;20.20;99.90
18450;DHT22;9354;50.194;7.690;2023-08-30T10:52:16;20.20;99.90
18450;DHT22;9354;50.194;7.690;2023-08-30T10:54:43;20.20;99.90
18450;DHT22;9354;50.194;7.690;2023-08-30T10:57:14;20.40;99.90
18450;DHT22;9354;50.194;7.690;2023-08-30T11:00:04;20.40;99.90
18450;DHT22;9354;50.194;7.690;2023-08-30T11:02:33;20.50;99.90
18450;DHT22;9354;50.194;7.690;2023-08-30T11:05:04;20.70;99.90
18450;DHT22;9354;50.194;7.690;2023-08-30T11:07:32;20.80;99.90
18450;DHT22;9354;50.194;7.690;2023-08-30T11:10:00;21.00;99.90
18450;DHT22;9354;50.194;7.690;2023-08-30T11:12:29;21.20;99.90
18450;DHT22;9354;50.194;7.690;2023-08-30T11:14:57;21.30;99.90
18450;DHT22;9354;50.194;7.690;2023-08-30T11:17:25;21.30;99.90
18450;DHT22;9354;50.194;7.690;2023-08-30T11:19:57;21.20;99.90
18450;DHT22;9354;50.194;7.690;2023-08-30T11:22:27;21.20;99.90
18450;DHT22;9354;50.194;7.690;2023-08-30T11:24:55;21.20;99.90
18450;DHT22;9354;50.194;7.690;2023-08-30T11:27:22;21.20;99.90
18450;DHT22;9354;50.194;7.690;2023-08-30T11:29:49;21.10;99.90
18450;DHT22;9354;50.194;7.690;2023-08-30T11:32:17;21.00;99.90
18450;DHT22;9354;50.194;7.690;2023-08-30T11:34:44;20.90;99.90
18450;DHT22;9354;50.194;7.690;2023-08-30T11:37:22;20.70;99.90
18450;DHT22;9354;50.194;7.690;2023-08-30T11:39:53;20.60;99.90
18450;DHT22;9354;50.194;7.690;2023-08-30T11:42:21;20.40;99.90
18450;DHT22;9354;50.194;7.690;2023-08-30T11:44:50;20.30;99.90
18450;DHT22;9354;50.194;7.690;2023-08-30T11:47:20;20.30;99.90
18450;DHT22;9354;50.194;7.690;2023-08-30T11:49:48;20.20;99.90
18450;DHT22;9354;50.194;7.690;2023-08-30T11:52:17;20.20;99.90
18450;DHT22;9354;50.194;7.690;2023-08-30T11:54:46;20.20;99.90
18450;DHT22;9354;50.194;7.690;2023-08-30T11:57:15;20.10;99.90
18450;DHT22;9354;50.194;7.690;2023-08-30T11:59:43;20.00;99.90
18450;DHT22;9354;50.194;7.690;2023-08-30T12:02:12;19.90;99.90
18450;DHT22;9354;50.194;7.690;2023-08-30T12:04:41;19.80;99.90
18450;DHT22;9354;50.194;7.690;2023-08-30T12:07:08;19.70;99.90
18450;DHT22;9354;50.194;7.690;2023-08-30T12:09:37;19.60;99.90
18450;DHT22;9354;50.194;7.690;2023-08-30T12:12:09;19.50;99.90
18450;DHT22;9354;50.194;7.690;2023-08-30T12:14:39;19.50;99.90
18450;DHT22;9354;50.194;7.690;2023-08-30T12:17:08;19.50;99.90
18450;DHT22;9354;50.194;7.690;2023-08-30T12:19:38;19.60;99.90
18450;DHT22;9354;50.194;7.690;2023-08-30T12:22:06;19.60;99.90
18450;DHT22;9354;50.194;7.690;2023-08-30T12:24:41;19.70;99.90
18450;DHT22;9354;50.194;7.690;2023-08-30T12:27:09;19.70;99.90
18450;DHT22;9354;50.194;7.690;2023-08-30T12:29:36;19.70;99.90
18450;DHT22;9354;50.194;7.690;2023-08-30T12:32:05;19.70;99.90
18450;DHT22;9354;50.194;7.690;2023-08-30T12:34:33;19.70;99.90
18450;DHT22;9354;50.194;7.690;2023-08-30T12:37:01;19.70;99.90
18450;DHT22;9354;50.194;7.690;2023-08-30T12:39:29;19.70;99.90
18450;DHT22;9354;50.194;7.690;2023-08-30T12:41:56;19.70;99.90
18450;DHT22;9354;50.194;7.690;2023-08-30T12:44:24;19.70;99.90
18450;DHT22;9354;50.194;7.690;2023-08-30T12:46:51;19.70;99.90
18450;DHT22;9354;50.194;7.690;2023-08-30T12:49:20;19.70;99.90
18450;DHT22;9354;50.194;7.690;2023-08-30T12:51:47;19.60;99.90
18450;DHT22;9354;50.194;7.690;2023-08-30T12:54:15;19.60;99.90
18450;DHT22;9354;50.194;7.690;2023-08-30T12:56:42;19.50;99.90
18450;DHT22;9354;50.194;7.690;2023-08-30T12:59:10;19.50;99.90
18450;DHT22;9354;50.194;7.690;2023-08-30T13:01:37;19.50;99.90
18450;DHT22;9354;50.194;7.690;2023-08-30T13:04:04;19.50;99.90
18450;DHT22;9354;50.194;7.690;2023-08-30T13:06:33;19.50;99.90
18450;DHT22;9354;50.194;7.690;2023-08-30T13:09:01;19.50;99.90
18450;DHT22;9354;50.194;7.690;2023-08-30T13:11:29;19.40;99.90
18450;DHT22;9354;50.194;7.690;2023-08-30T13:13:58;19.40;99.90
18450;DHT22;9354;50.194;7.690;2023-08-30T13:16:26;19.40;99.90
18450;DHT22;9354;50.194;7.690;2023-08-30T13:18:53;19.40;99.90
18450;DHT22;9354;50.194;7.690;2023-08-30T13:21:20;19.50;99.90
18450;DHT22;9354;50.194;7.690;2023-08-30T13:23:49;19.50;99.90
18450;DHT22;9354;50.194;7.690;2023-08-30T13:26:16;19.50;99.90
18450;DHT22;9354;50.194;7.690;2023-08-30T13:28:44;19.50;99.90
18450;DHT22;9354;50.194;7.690;2023-08-30T13:31:11;19.50;99.90
18450;DHT22;9354;50.194;7.690;2023-08-30T13:33:38;19.50;99.90
18450;DHT22;9354;50.194;7.690;2023-08-30T13:36:06;19.60;99.90
18450;DHT22;9354;50.194;7.690;2023-08-30T13:38:33;19.60;99.90
18450;DHT22;9354;50.194;7.690;2023-08-30T13:41:02;19.70;99.90
18450;DHT22;9354;50.194;7.690;2023-08-30T13:43:30;19.80;99.90
18450;DHT22;9354;50.194;7.690;2023-08-30T13:45:58;20.00;99.90
18450;DHT22;9354;50.194;7.690;2023-08-30T13:48:25;20.10;99.90
18450;DHT22;9354;50.194;7.690;2023-08-30T13:50:52;20.30;99.90
18450;DHT22;9354;50.194;7.690;2023-08-30T13:53:20;20.50;99.90
18450;DHT22;9354;50.194;7.690;2023-08-30T13:55:47;20.80;99.90
18450;DHT22;9354;50.194;7.690;2023-08-30T13:58:17;21.00;99.90
18450;DHT22;9354;50.194;7.690;2023-08-30T14:00:44;21.20;99.90
18450;DHT22;9354;50.194;7.690;2023-08-30T14:03:12;21.50;99.90
18450;DHT22;9354;50.194;7.690;2023-08-30T14:05:41;21.80;99.90
18450;DHT22;9354;50.194;7.690;2023-08-30T14:08:08;21.80;99.90
18450;DHT22;9354;50.194;7.690;2023-08-30T14:10:36;21.90;99.90
18450;DHT22;9354;50.194;7.690;2023-08-30T14:13:03;22.00;99.90
18450;DHT22;9354;50.194;7.690;2023-08-30T14:15:32;21.90;99.90
18450;DHT22;9354;50.194;7.690;2023-08-30T14:18:00;21.80;99.90
18450;DHT22;9354;50.194;7.690;2023-08-30T14:20:28;21.50;99.90
18450;DHT22;9354;50.194;7.690;2023-08-30T14:22:55;21.40;99.90
18450;DHT22;9354;50.194;7.690;2023-08-30T14:25:22;21.30;99.90
18450;DHT22;9354;50.194;7.690;2023-08-30T14:27:50;21.30;99.90
18450;DHT22;9354;50.194;7.690;2023-08-30T14:30:17;21.40;99.90
18450;DHT22;9354;50.194;7.690;2023-08-30T14:32:46;21.20;99.90
18450;DHT22;9354;50.194;7.690;2023-08-30T14:35:13;21.10;99.90
18450;DHT22;9354;50.194;7.690;2023-08-30T14:37:41;21.00;99.90
18450;DHT22;9354;50.194;7.690;2023-08-30T14:40:08;20.80;99.90
18450;DHT22;9354;50.194;7.690;2023-08-30T14:42:36;20.70;99.90
18450;DHT22;9354;50.194;7.690;2023-08-30T14:45:04;20.50;99.90
18450;DHT22;9354;50.194;7.690;2023-08-30T14:47:32;20.40;99.90
18450;DHT22;9354;50.194;7.690;2023-08-30T14:50:01;20.30;99.90
18450;DHT22;9354;50.194;7.690;2023-08-30T14:52:29;20.20;99.90
18450;DHT22;9354;50.194;7.690;2023-08-30T14:54:56;20.10;99.90
18450;DHT22;9354;50.194;7.690;2023-08-30T14:57:24;20.00;99.90
18450;DHT22;9354;50.194;7.690;2023-08-30T14:59:52;19.90;99.90
18450;DHT22;9354;50.194;7.690;2023-08-30T15:02:20;19.70;99.90
18450;DHT22;9354;50.194;7.690;2023-08-30T15:04:48;19.50;99.90
18450;DHT22;9354;50.194;7.690;2023-08-30T15:07:17;19.20;99.90
18450;DHT22;9354;50.194;7.690;2023-08-30T15:09:45;19.00;99.90
18450;DHT22;9354;50.194;7.690;2023-08-30T15:12:12;18.70;99.90
18450;DHT22;9354;50.194;7.690;2023-08-30T15:14:39;18.50;99.90
18450;DHT22;9354;50.194;7.690;2023-08-30T15:17:09;18.20;99.90
18450;DHT22;9354;50.194;7.690;2023-08-30T15:19:36;17.90;99.90
18450;DHT22;9354;50.194;7.690;2023-08-30T15:22:04;17.60;99.90
18450;DHT22;9354;50.194;7.690;2023-08-30T15:24:32;17.40;99.90
18450;DHT22;9354;50.194;7.690;2023-08-30T15:27:00;17.20;99.90
18450;DHT22;9354;50.194;7.690;2023-08-30T15:29:28;17.00;99.90
18450;DHT22;9354;50.194;7.690;2023-08-30T15:31:55;16.90;99.90
18450;DHT22;9354;50.194;7.690;2023-08-30T15:34:23;16.70;99.90
18450;DHT22;9354;50.194;7.690;2023-08-30T15:36:50;16.70;99.90
18450;DHT22;9354;50.194;7.690;2023-08-30T15:39:17;16.80;99.90
18450;DHT22;9354;50.194;7.690;2023-08-30T15:41:46;16.80;99.90
18450;DHT22;9354;50.194;7.690;2023-08-30T15:44:14;16.80;99.90
18450;DHT22;9354;50.194;7.690;2023-08-30T15:46:41;16.80;99.90
18450;DHT22;9354;50.194;7.690;2023-08-30T15:49:09;16.70;99.90
18450;DHT22;9354;50.194;7.690;2023-08-30T15:51:36;16.70;99.90